createdAt,value
2023-05-13T00:03:34.644Z,7.80
2023-05-13T00:06:03.863Z,7.90
2023-05-13T00:08:31.940Z,9.60
2023-05-13T00:11:00.722Z,7.70
2023-05-13T00:13:29.008Z,6.60
2023-05-13T00:15:57.076Z,6.20
2023-05-13T00:18:25.972Z,6.70
2023-05-13T00:20:54.246Z,6.50
2023-05-13T00:23:23.458Z,6.50
2023-05-13T00:25:51.883Z,6.50
2023-05-13T00:28:20.343Z,4.70
2023-05-13T00:30:48.614Z,5.40
2023-05-13T00:33:17.373Z,5.60
2023-05-13T00:35:45.551Z,5.60
2023-05-13T00:38:14.679Z,4.70
2023-05-13T00:40:43.328Z,4.60
2023-05-13T00:43:11.528Z,4.00
2023-05-13T00:45:39.804Z,3.20
2023-05-13T00:48:09.360Z,4.50
2023-05-13T00:50:37.613Z,4.10
2023-05-13T00:53:05.640Z,3.50
2023-05-13T00:55:33.806Z,2.90
2023-05-13T00:58:03.707Z,2.80
2023-05-13T01:00:36.709Z,3.30
2023-05-13T01:03:20.228Z,2.50
2023-05-13T01:06:08.624Z,2.00
2023-05-13T01:08:39.617Z,2.50
2023-05-13T01:11:19.734Z,2.40
2023-05-13T01:13:52.528Z,2.80
2023-05-13T01:16:40.117Z,2.20
2023-05-13T01:20:06.584Z,2.10
2023-05-13T01:22:34.788Z,2.30
2023-05-13T01:25:02.984Z,2.10
2023-05-13T01:27:31.245Z,1.80
2023-05-13T01:30:00.628Z,2.00
2023-05-13T01:32:28.949Z,1.70
2023-05-13T01:34:58.667Z,1.90
2023-05-13T01:37:29.448Z,2.30
2023-05-13T01:39:57.886Z,1.80
2023-05-13T01:42:29.492Z,1.70
2023-05-13T01:44:58.106Z,1.90
2023-05-13T01:47:27.134Z,1.60
2023-05-13T01:49:55.665Z,1.90
2023-05-13T01:52:23.766Z,2.00
2023-05-13T01:54:51.803Z,2.40
2023-05-13T01:57:19.898Z,2.80
2023-05-13T01:59:47.948Z,2.80
2023-05-13T02:02:16.231Z,3.20
2023-05-13T02:04:44.556Z,3.10
2023-05-13T02:07:12.607Z,3.50
2023-05-13T02:09:40.732Z,3.90
2023-05-13T02:12:08.779Z,4.20
2023-05-13T02:14:36.842Z,3.80
2023-05-13T02:17:05.260Z,3.70
2023-05-13T02:19:33.924Z,4.00
2023-05-13T02:22:01.889Z,4.40
2023-05-13T02:24:31.188Z,4.40
2023-05-13T02:26:59.888Z,4.60
2023-05-13T02:29:28.279Z,4.30
2023-05-13T02:31:57.059Z,4.80
2023-05-13T02:34:25.637Z,4.70
2023-05-13T02:36:54.470Z,5.20
2023-05-13T02:39:23.077Z,5.10
2023-05-13T02:41:51.717Z,5.60
2023-05-13T02:44:20.414Z,5.30
2023-05-13T02:46:49.578Z,4.60
2023-05-13T02:49:17.696Z,4.70
2023-05-13T02:51:46.048Z,4.60
2023-05-13T02:54:14.039Z,5.00
2023-05-13T02:56:42.255Z,4.90
2023-05-13T02:59:10.253Z,4.10
2023-05-13T03:01:38.900Z,4.30
2023-05-13T03:04:07.697Z,4.30
2023-05-13T03:06:36.370Z,3.80
2023-05-13T03:09:04.715Z,4.40
2023-05-13T03:11:32.985Z,3.50
2023-05-13T03:14:01.293Z,3.80
2023-05-13T03:16:29.390Z,3.80
2023-05-13T03:18:57.924Z,3.60
2023-05-13T03:21:27.942Z,3.50
2023-05-13T03:23:56.204Z,3.50
2023-05-13T03:26:24.872Z,3.00
2023-05-13T03:28:53.400Z,3.30
2023-05-13T03:31:22.158Z,3.50
2023-05-13T03:33:50.352Z,3.00
2023-05-13T03:36:18.805Z,2.90
2023-05-13T03:38:47.359Z,3.00
2023-05-13T03:41:15.934Z,2.60
2023-05-13T03:43:44.288Z,2.80
2023-05-13T03:46:12.434Z,2.80
2023-05-13T03:48:40.946Z,2.40
2023-05-13T03:51:09.918Z,2.40
2023-05-13T03:53:38.082Z,2.20
2023-05-13T03:56:06.501Z,2.30
2023-05-13T03:58:34.619Z,2.10
2023-05-13T04:01:02.860Z,2.10
2023-05-13T04:03:31.524Z,2.20
2023-05-13T04:06:01.049Z,1.60
2023-05-13T04:08:29.572Z,1.80
2023-05-13T04:10:58.727Z,1.40
2023-05-13T04:13:27.282Z,1.80
2023-05-13T04:15:56.450Z,1.80
2023-05-13T04:18:25.803Z,1.50
2023-05-13T04:20:53.925Z,1.40
2023-05-13T04:23:22.905Z,1.40
2023-05-13T04:25:52.068Z,1.30
2023-05-13T04:28:20.824Z,1.50
2023-05-13T04:30:49.061Z,1.50
2023-05-13T04:33:17.469Z,1.10
2023-05-13T04:35:46.163Z,1.40
2023-05-13T04:38:14.359Z,1.10
2023-05-13T04:40:44.512Z,1.10
2023-05-13T04:43:12.649Z,1.30
2023-05-13T04:45:41.177Z,1.40
2023-05-13T04:48:09.306Z,1.10
2023-05-13T04:50:37.403Z,1.00
2023-05-13T04:53:06.456Z,1.20
2023-05-13T04:55:35.646Z,1.20
2023-05-13T04:58:03.613Z,1.10
2023-05-13T05:00:31.769Z,1.10
2023-05-13T05:03:00.729Z,1.10
2023-05-13T05:05:28.827Z,1.10
2023-05-13T05:07:57.265Z,1.40
2023-05-13T05:10:25.321Z,1.10
2023-05-13T05:12:53.296Z,0.90
2023-05-13T05:15:22.717Z,0.90
2023-05-13T05:17:51.186Z,0.90
2023-05-13T05:20:20.882Z,1.30
2023-05-13T05:22:49.281Z,1.00
2023-05-13T05:25:17.434Z,0.90
2023-05-13T05:27:46.030Z,1.20
2023-05-13T05:30:14.821Z,1.00
2023-05-13T05:32:43.196Z,1.10
2023-05-13T05:35:11.576Z,1.00
2023-05-13T05:37:39.762Z,1.20
2023-05-13T05:40:08.744Z,1.20
2023-05-13T05:42:37.365Z,1.00
2023-05-13T05:45:05.765Z,1.20
2023-05-13T05:47:34.441Z,1.10
2023-05-13T05:50:02.436Z,0.90
2023-05-13T05:52:30.520Z,0.90
2023-05-13T05:54:58.718Z,0.90
2023-05-13T05:57:27.881Z,1.50
2023-05-13T05:59:55.864Z,1.40
2023-05-13T06:02:24.398Z,1.70
2023-05-13T06:04:52.668Z,2.10
2023-05-13T06:07:20.770Z,2.10
2023-05-13T06:09:49.344Z,3.20
2023-05-13T06:12:17.719Z,5.10
2023-05-13T06:14:45.816Z,4.40
2023-05-13T06:17:14.495Z,5.30
2023-05-13T06:19:42.659Z,10.50
2023-05-13T06:22:11.643Z,10.10
2023-05-13T06:24:39.911Z,8.90
2023-05-13T06:27:07.988Z,6.50
2023-05-13T06:29:36.018Z,5.30
2023-05-13T06:32:04.877Z,3.50
2023-05-13T06:34:32.953Z,4.30
2023-05-13T06:37:00.922Z,4.40
2023-05-13T06:39:29.239Z,4.30
2023-05-13T06:41:57.213Z,3.40
2023-05-13T06:44:25.185Z,4.70
2023-05-13T06:46:53.543Z,4.70
2023-05-13T06:49:22.237Z,4.20
2023-05-13T06:51:51.200Z,6.20
2023-05-13T06:54:20.055Z,7.20
2023-05-13T06:56:48.128Z,6.70
2023-05-13T06:59:16.313Z,6.50
2023-05-13T07:01:44.600Z,5.50
2023-05-13T07:04:13.029Z,6.30
2023-05-13T07:06:41.218Z,11.40
2023-05-13T07:09:09.390Z,14.70
2023-05-13T07:11:37.558Z,13.10
2023-05-13T07:14:05.759Z,9.70
2023-05-13T07:16:34.292Z,6.00
2023-05-13T07:19:02.621Z,5.00
2023-05-13T07:21:31.388Z,3.70
2023-05-13T07:23:59.555Z,2.90
2023-05-13T07:26:29.272Z,2.50
2023-05-13T07:29:01.886Z,2.30
2023-05-13T07:31:38.536Z,1.30
2023-05-13T07:34:07.186Z,1.00
2023-05-13T07:36:35.300Z,0.70
2023-05-13T07:39:03.506Z,0.60
2023-05-13T07:41:31.571Z,0.60
2023-05-13T07:43:59.930Z,0.50
2023-05-13T07:46:28.419Z,0.60
2023-05-13T07:48:56.592Z,0.70
2023-05-13T07:51:27.182Z,0.50
2023-05-13T07:53:58.654Z,0.60
2023-05-13T07:56:27.766Z,0.80
2023-05-13T07:58:56.857Z,1.20
2023-05-13T08:01:25.187Z,1.40
2023-05-13T08:03:53.567Z,1.10
2023-05-13T08:06:21.934Z,0.70
2023-05-13T08:08:51.150Z,0.80
2023-05-13T08:11:19.292Z,0.60
2023-05-13T08:13:48.082Z,0.70
2023-05-13T08:16:16.308Z,0.70
2023-05-13T08:18:44.453Z,0.70
2023-05-13T08:21:14.317Z,0.80
2023-05-13T08:23:45.440Z,0.50
2023-05-13T08:26:15.040Z,0.80
2023-05-13T08:28:43.138Z,0.80
2023-05-13T08:31:13.138Z,1.00
2023-05-13T08:33:42.281Z,0.90
2023-05-13T08:36:11.229Z,0.70
2023-05-13T08:38:39.538Z,0.80
2023-05-13T08:41:08.855Z,0.60
2023-05-13T08:43:38.750Z,0.50
2023-05-13T08:46:10.402Z,0.60
2023-05-13T08:48:41.019Z,0.60
2023-05-13T08:51:10.222Z,0.60
2023-05-13T08:53:40.252Z,0.60
2023-05-13T08:56:09.358Z,0.60
2023-05-13T08:58:37.444Z,0.80
2023-05-13T09:01:06.763Z,0.30
2023-05-13T09:03:36.000Z,0.50
2023-05-13T09:06:04.408Z,0.40
2023-05-13T09:08:32.963Z,0.50
2023-05-13T09:11:01.204Z,0.60
2023-05-13T09:13:29.512Z,0.60
2023-05-13T09:15:58.170Z,0.60
2023-05-13T09:18:31.184Z,0.50
2023-05-13T09:21:23.908Z,0.40
2023-05-13T09:24:08.466Z,0.50
2023-05-13T09:26:38.410Z,0.60
2023-05-13T09:29:28.926Z,0.70
2023-05-13T09:31:59.384Z,0.80
2023-05-13T09:34:32.820Z,0.90
2023-05-13T09:37:04.320Z,0.70
2023-05-13T09:39:38.273Z,0.90
2023-05-13T09:42:15.353Z,1.20
2023-05-13T09:44:45.100Z,0.80
2023-05-13T09:47:14.778Z,5.00
2023-05-13T09:49:44.185Z,4.90
2023-05-13T09:52:16.606Z,4.00
2023-05-13T09:54:45.073Z,4.80
2023-05-13T09:57:13.906Z,6.00
2023-05-13T09:59:42.103Z,3.30
2023-05-13T10:02:16.238Z,1.40
2023-05-13T10:04:44.753Z,1.30
2023-05-13T10:07:16.744Z,1.00
2023-05-13T10:09:47.782Z,1.30
2023-05-13T10:12:16.679Z,1.20
2023-05-13T10:14:45.269Z,1.40
2023-05-13T10:17:14.621Z,1.00
2023-05-13T10:19:43.586Z,1.50
2023-05-13T10:22:13.232Z,1.50
2023-05-13T10:24:43.418Z,1.10
2023-05-13T10:27:12.295Z,1.40
2023-05-13T10:29:43.955Z,1.10
2023-05-13T10:32:13.061Z,1.10
2023-05-13T10:34:44.196Z,1.20
2023-05-13T10:37:31.272Z,0.80
2023-05-13T10:40:17.982Z,0.90
2023-05-13T10:43:08.755Z,0.70
2023-05-13T10:45:37.669Z,0.90
2023-05-13T10:48:08.843Z,1.10
2023-05-13T10:50:39.134Z,1.20
2023-05-13T10:53:20.219Z,0.90
2023-05-13T10:55:53.916Z,1.00
2023-05-13T10:58:33.441Z,0.90
2023-05-13T11:01:16.963Z,1.30
2023-05-13T11:03:57.764Z,1.00
2023-05-13T11:06:38.204Z,0.80
2023-05-13T11:09:27.504Z,1.10
2023-05-13T11:12:01.336Z,0.90
2023-05-13T11:14:32.848Z,1.10
2023-05-13T11:17:01.059Z,0.90
2023-05-13T11:19:32.370Z,1.10
2023-05-13T11:22:15.429Z,1.00
2023-05-13T11:25:07.770Z,1.00
2023-05-13T11:27:41.091Z,0.80
2023-05-13T11:30:23.465Z,0.90
2023-05-13T11:32:51.989Z,0.80
2023-05-13T11:35:26.143Z,0.90
2023-05-13T11:38:03.612Z,0.70
2023-05-13T11:40:36.840Z,1.00
2023-05-13T11:43:05.366Z,0.90
2023-05-13T11:45:39.314Z,1.00
2023-05-13T11:48:22.884Z,0.70
2023-05-13T11:50:51.877Z,0.80
2023-05-13T11:53:21.485Z,0.90
2023-05-13T11:55:50.633Z,1.20
2023-05-13T11:58:21.559Z,0.70
2023-05-13T12:00:49.969Z,0.70
2023-05-13T12:03:18.230Z,0.90
2023-05-13T12:05:46.524Z,1.00
2023-05-13T12:08:14.820Z,1.00
2023-05-13T12:10:43.863Z,0.90
2023-05-13T12:13:12.725Z,0.90
2023-05-13T12:15:42.136Z,1.10
2023-05-13T12:18:10.462Z,0.80
2023-05-13T12:20:38.816Z,1.20
2023-05-13T12:23:06.977Z,1.30
2023-05-13T12:25:41.651Z,1.20
2023-05-13T12:28:24.877Z,1.40
2023-05-13T12:30:54.987Z,1.00
2023-05-13T12:33:28.826Z,2.50
2023-05-13T12:36:18.378Z,3.30
2023-05-13T12:39:04.109Z,1.10
2023-05-13T12:41:34.024Z,1.40
2023-05-13T12:44:18.434Z,0.90
2023-05-13T12:46:54.221Z,1.10
2023-05-13T12:49:22.307Z,1.10
2023-05-13T12:51:50.545Z,1.00
2023-05-13T12:54:18.670Z,1.00
2023-05-13T12:56:46.781Z,1.00
2023-05-13T12:59:14.920Z,1.50
2023-05-13T13:01:43.427Z,1.60
2023-05-13T13:04:12.157Z,1.50
2023-05-13T13:06:40.718Z,1.60
2023-05-13T13:09:08.873Z,1.00
2023-05-13T13:11:36.939Z,1.40
2023-05-13T13:14:04.878Z,1.20
2023-05-13T13:16:33.669Z,1.20
2023-05-13T13:19:02.901Z,1.50
2023-05-13T13:21:32.794Z,1.10
2023-05-13T13:24:01.391Z,0.90
2023-05-13T13:26:29.895Z,1.40
2023-05-13T13:28:58.257Z,1.40
2023-05-13T13:31:26.343Z,1.40
2023-05-13T13:33:54.862Z,1.50
2023-05-13T13:36:23.614Z,2.10
2023-05-13T13:38:51.877Z,1.50
2023-05-13T13:41:19.981Z,1.50
2023-05-13T13:43:47.984Z,1.70
2023-05-13T13:46:16.855Z,1.20
2023-05-13T13:48:44.945Z,1.40
2023-05-13T13:51:13.029Z,1.40
2023-05-13T13:53:41.180Z,1.20
2023-05-13T13:56:11.442Z,1.70
2023-05-13T13:58:41.173Z,1.20
2023-05-13T14:01:09.310Z,1.10
2023-05-13T14:03:37.911Z,1.30
2023-05-13T14:06:06.690Z,1.10
2023-05-13T14:08:34.714Z,1.00
2023-05-13T14:11:02.985Z,1.50
2023-05-13T14:13:31.024Z,1.00
2023-05-13T14:15:59.746Z,1.00
2023-05-13T14:18:29.320Z,1.20
2023-05-13T14:20:57.493Z,1.30
2023-05-13T14:23:25.672Z,1.20
2023-05-13T14:25:53.963Z,1.30
2023-05-13T14:28:23.735Z,1.50
2023-05-13T14:30:53.121Z,1.00
2023-05-13T14:33:21.133Z,1.20
2023-05-13T14:35:49.614Z,1.70
2023-05-13T14:38:17.690Z,1.30
2023-05-13T14:40:45.711Z,1.10
2023-05-13T14:43:14.053Z,0.90
2023-05-13T14:45:42.087Z,1.30
2023-05-13T14:48:10.130Z,1.00
2023-05-13T14:50:39.356Z,1.10
2023-05-13T14:53:08.937Z,1.10
2023-05-13T14:55:37.231Z,0.90
2023-05-13T14:58:06.021Z,1.00
2023-05-13T15:00:35.199Z,0.90
2023-05-13T15:03:03.747Z,1.50
2023-05-13T15:05:32.422Z,1.60
2023-05-13T15:08:00.557Z,1.00
2023-05-13T15:10:28.665Z,0.90
2023-05-13T15:12:56.864Z,0.90
2023-05-13T15:15:25.132Z,0.90
2023-05-13T15:17:54.053Z,1.70
2023-05-13T15:20:22.943Z,1.30
2023-05-13T15:22:51.378Z,0.90
2023-05-13T15:25:22.449Z,1.00
2023-05-13T15:27:50.668Z,0.70
2023-05-13T15:30:19.302Z,0.80
2023-05-13T15:32:48.042Z,1.20
2023-05-13T15:35:16.530Z,0.70
2023-05-13T15:37:45.040Z,0.70
2023-05-13T15:40:13.323Z,0.60
2023-05-13T15:42:41.825Z,0.70
2023-05-13T15:45:09.953Z,0.60
2023-05-13T15:47:38.648Z,0.60
2023-05-13T15:50:12.449Z,0.50
2023-05-13T15:52:41.264Z,0.70
2023-05-13T15:55:09.388Z,0.50
2023-05-13T15:57:38.151Z,0.50
2023-05-13T16:00:07.197Z,0.60
2023-05-13T16:02:35.326Z,0.50
2023-05-13T16:05:04.142Z,0.60
2023-05-13T16:07:32.731Z,0.60
2023-05-13T16:10:01.016Z,0.40
2023-05-13T16:12:31.034Z,0.70
2023-05-13T16:14:59.198Z,0.60
2023-05-13T16:17:27.236Z,0.50
2023-05-13T16:19:55.782Z,0.50
2023-05-13T16:22:35.398Z,0.70
2023-05-13T16:25:09.231Z,0.50
2023-05-13T16:27:39.272Z,0.60
2023-05-13T16:30:08.721Z,0.40
2023-05-13T16:32:37.809Z,0.40
2023-05-13T16:35:06.941Z,0.40
2023-05-13T16:37:35.674Z,0.60
2023-05-13T16:40:04.668Z,0.50
2023-05-13T16:42:34.137Z,0.50
2023-05-13T16:45:02.171Z,0.40
2023-05-13T16:47:30.430Z,0.70
2023-05-13T16:49:59.372Z,0.40
2023-05-13T16:52:27.990Z,0.50
2023-05-13T16:54:58.374Z,0.80
2023-05-13T16:57:28.894Z,0.70
2023-05-13T16:59:57.953Z,0.40
2023-05-13T17:02:26.243Z,0.60
2023-05-13T17:04:55.127Z,0.50
2023-05-13T17:07:23.245Z,0.60
2023-05-13T17:09:51.391Z,0.40
2023-05-13T17:12:21.394Z,0.60
2023-05-13T17:14:49.754Z,0.50
2023-05-13T17:17:17.851Z,0.60
2023-05-13T17:19:46.134Z,0.60
2023-05-13T17:22:14.233Z,0.60
2023-05-13T17:24:42.367Z,0.60
2023-05-13T17:27:11.341Z,0.60
2023-05-13T17:29:39.319Z,0.50
2023-05-13T17:32:07.854Z,0.80
2023-05-13T17:34:36.145Z,0.70
2023-05-13T17:37:04.155Z,0.80
2023-05-13T17:39:33.080Z,0.50
2023-05-13T17:42:01.228Z,0.50
2023-05-13T17:44:29.404Z,0.60
2023-05-13T17:46:58.273Z,0.80
2023-05-13T17:49:26.845Z,1.00
2023-05-13T17:51:55.014Z,0.60
2023-05-13T17:54:23.156Z,0.60
2023-05-13T17:56:52.020Z,0.60
2023-05-13T17:59:20.153Z,0.60
2023-05-13T18:01:48.436Z,0.40
2023-05-13T18:04:16.542Z,0.50
2023-05-13T18:06:45.140Z,0.60
2023-05-13T18:09:13.368Z,0.50
2023-05-13T18:11:42.949Z,0.50
2023-05-13T18:14:11.067Z,0.70
2023-05-13T18:16:39.402Z,0.40
2023-05-13T18:19:08.035Z,0.50
2023-05-13T18:21:36.236Z,0.50
2023-05-13T18:24:04.624Z,0.40
2023-05-13T18:26:33.244Z,0.50
2023-05-13T18:29:01.191Z,0.40
2023-05-13T18:31:29.529Z,0.40
2023-05-13T18:33:58.337Z,0.30
2023-05-13T18:36:26.507Z,0.30
2023-05-13T18:38:55.191Z,0.40
2023-05-13T18:41:23.254Z,0.60
2023-05-13T18:43:51.546Z,0.40
2023-05-13T18:46:20.280Z,0.60
2023-05-13T18:48:48.693Z,0.40
2023-05-13T18:51:16.921Z,0.60
2023-05-13T18:53:45.557Z,0.40
2023-05-13T18:56:13.881Z,0.40
2023-05-13T18:58:41.870Z,0.30
2023-05-13T19:01:09.869Z,0.30
2023-05-13T19:03:39.212Z,0.50
2023-05-13T19:06:07.963Z,0.40
2023-05-13T19:08:36.445Z,0.60
2023-05-13T19:11:05.395Z,0.40
2023-05-13T19:13:46.043Z,0.60
2023-05-13T19:16:16.015Z,0.70
2023-05-13T19:18:44.108Z,0.80
2023-05-13T19:21:12.155Z,0.60
2023-05-13T19:23:40.252Z,0.80
2023-05-13T19:26:11.386Z,1.00
2023-05-13T19:28:40.040Z,0.70
2023-05-13T19:31:08.092Z,0.90
2023-05-13T19:33:36.696Z,0.90
2023-05-13T19:36:06.198Z,1.10
2023-05-13T19:38:35.593Z,0.90
2023-05-13T19:41:03.717Z,1.00
2023-05-13T19:43:31.927Z,1.10
2023-05-13T19:46:00.699Z,1.50
2023-05-13T19:48:30.163Z,1.10
2023-05-13T19:50:58.236Z,1.20
2023-05-13T19:53:26.802Z,1.60
2023-05-13T19:55:55.064Z,1.80
2023-05-13T19:58:23.336Z,1.60
2023-05-13T20:00:51.567Z,3.10
2023-05-13T20:03:19.793Z,3.40
2023-05-13T20:05:48.557Z,2.30
2023-05-13T20:08:16.600Z,3.40
2023-05-13T20:10:44.800Z,2.30
2023-05-13T20:13:14.119Z,2.20
2023-05-13T20:15:42.623Z,2.20
2023-05-13T20:18:11.009Z,2.40
2023-05-13T20:20:39.322Z,2.70
2023-05-13T20:23:07.919Z,2.50
2023-05-13T20:25:37.085Z,2.90
2023-05-13T20:28:05.412Z,2.20
2023-05-13T20:30:33.791Z,2.80
2023-05-13T20:33:01.817Z,3.30
2023-05-13T20:35:30.341Z,2.20
2023-05-13T20:37:58.326Z,2.20
2023-05-13T20:40:26.779Z,2.40
2023-05-13T20:42:55.059Z,2.30
2023-05-13T20:45:23.141Z,2.30
2023-05-13T20:47:51.121Z,2.60
2023-05-13T20:50:19.396Z,3.50
2023-05-13T20:52:47.519Z,3.80
2023-05-13T20:55:15.773Z,3.60
2023-05-13T20:57:45.178Z,2.90
2023-05-13T21:00:14.324Z,2.70
2023-05-13T21:02:42.771Z,2.30
2023-05-13T21:05:11.314Z,2.40
2023-05-13T21:07:39.319Z,2.10
2023-05-13T21:10:09.792Z,1.90
2023-05-13T21:12:37.907Z,1.90
2023-05-13T21:15:07.554Z,1.80
2023-05-13T21:17:36.101Z,1.80
2023-05-13T21:20:05.191Z,2.10
2023-05-13T21:22:33.179Z,2.20
2023-05-13T21:25:01.242Z,1.90
2023-05-13T21:27:29.825Z,1.80
2023-05-13T21:29:58.259Z,2.00
2023-05-13T21:32:26.369Z,1.70
2023-05-13T21:34:55.831Z,2.10
2023-05-13T21:37:25.772Z,1.90
2023-05-13T21:39:53.834Z,2.20
2023-05-13T21:42:22.108Z,1.70
2023-05-13T21:44:50.473Z,1.80
2023-05-13T21:47:18.651Z,2.00
2023-05-13T21:49:46.805Z,1.80
2023-05-13T21:52:14.921Z,1.70
2023-05-13T21:54:42.992Z,2.10
2023-05-13T21:57:10.957Z,2.10
2023-05-13T21:59:39.299Z,2.10
2023-05-13T22:02:07.977Z,1.80
2023-05-13T22:04:36.963Z,2.20
2023-05-13T22:07:05.067Z,1.40
2023-05-13T22:09:33.657Z,1.60
2023-05-13T22:12:02.800Z,1.40
2023-05-13T22:14:31.505Z,1.60
2023-05-13T22:17:09.144Z,1.70
2023-05-13T22:19:38.172Z,1.50
2023-05-13T22:22:06.285Z,1.70
2023-05-13T22:24:35.956Z,1.80
2023-05-13T22:27:04.397Z,1.80
2023-05-13T22:29:32.781Z,2.20
2023-05-13T22:32:02.392Z,2.00
2023-05-13T22:34:30.676Z,1.90
2023-05-13T22:37:01.414Z,2.10
2023-05-13T22:39:29.475Z,2.30
2023-05-13T22:41:58.110Z,2.20
2023-05-13T22:44:26.221Z,1.80
2023-05-13T22:46:54.294Z,1.90
2023-05-13T22:49:23.128Z,1.90
2023-05-13T22:51:51.410Z,1.90
2023-05-13T22:54:20.736Z,1.50
2023-05-13T22:56:48.854Z,1.30
2023-05-13T22:59:17.379Z,1.30
2023-05-13T23:01:45.954Z,1.40
2023-05-13T23:04:14.619Z,1.60
2023-05-13T23:06:43.288Z,1.50
2023-05-13T23:09:11.330Z,1.60
2023-05-13T23:11:39.641Z,1.60
2023-05-13T23:14:08.227Z,1.50
2023-05-13T23:16:36.512Z,1.80
2023-05-13T23:19:05.115Z,1.40
2023-05-13T23:21:33.196Z,1.30
2023-05-13T23:24:01.437Z,1.40
2023-05-13T23:26:29.779Z,1.60
2023-05-13T23:28:57.776Z,1.80
2023-05-13T23:31:26.113Z,2.20
2023-05-13T23:33:54.964Z,2.20
2023-05-13T23:36:23.534Z,2.00
2023-05-13T23:38:52.526Z,2.00
2023-05-13T23:41:20.532Z,1.80
2023-05-13T23:43:48.857Z,1.70
2023-05-13T23:46:17.065Z,1.60
2023-05-13T23:48:45.682Z,1.70
2023-05-13T23:51:14.419Z,1.30
2023-05-13T23:53:43.171Z,1.40
2023-05-13T23:56:12.040Z,1.20
2023-05-13T23:58:40.047Z,1.40
